Time;durP1;ratioP1;P1;durP2;ratioP2;P2;SDS_P1;SDS_P2;PMS_P1;PMS_P2;Temp;Humidity;BMP_temperature;BMP_pressure;BME280_temperature;BME280_humidity;BME280_pressure;Samples;Min_cycle;Max_cycle;Signal;HPM_P1;HPM_P2
2022/03/08 00:00:26;;;;;;;11.47;8.43;;;;;;;;;;5063974;28;20591;-67
2022/03/08 00:02:54;;;;;;;15.27;8.80;;;;;;;;;;5072116;28;20573;-66
2022/03/08 00:05:19;;;;;;;10.63;8.50;;;;;;;;;;5069717;28;20238;-67
2022/03/08 00:07:47;;;;;;;9.43;7.40;;;;;;;;;;5070607;28;20208;-67
2022/03/08 00:10:13;;;;;;;15.13;10.20;;;;;;;;;;5066700;28;20536;-66
2022/03/08 00:12:38;;;;;;;12.53;8.10;;;;;;;;;;5063361;28;20182;-67
2022/03/08 00:15:05;;;;;;;14.73;8.47;;;;;;;;;;5048892;28;20188;-68
2022/03/08 00:17:30;;;;;;;13.47;8.57;;;;;;;;;;5067031;28;20181;-66
2022/03/08 00:19:55;;;;;;;13.47;8.90;;;;;;;;;;5067470;28;20793;-67
2022/03/08 00:22:21;;;;;;;11.97;8.93;;;;;;;;;;5070043;28;20276;-66
2022/03/08 00:24:46;;;;;;;15.03;9.60;;;;;;;;;;5068338;28;20451;-67
2022/03/08 00:27:11;;;;;;;12.73;9.30;;;;;;;;;;5052421;28;20200;-66
2022/03/08 00:29:37;;;;;;;14.87;9.57;;;;;;;;;;5071109;28;20205;-67
2022/03/08 00:32:02;;;;;;;14.43;9.00;;;;;;;;;;5071997;28;20278;-67
2022/03/08 00:34:27;;;;;;;12.87;8.90;;;;;;;;;;5070984;28;20639;-67
2022/03/08 00:36:52;;;;;;;18.17;8.40;;;;;;;;;;5069884;28;20177;-66
2022/03/08 00:39:18;;;;;;;14.63;9.17;;;;;;;;;;5070225;28;20204;-66
2022/03/08 00:41:44;;;;;;;13.43;8.93;;;;;;;;;;5044421;28;20196;-66
2022/03/08 00:44:09;;;;;;;11.33;8.57;;;;;;;;;;5049507;28;20211;-66
2022/03/08 00:46:34;;;;;;;13.43;8.53;;;;;;;;;;5068469;28;20201;-66
2022/03/08 00:48:59;;;;;;;11.93;8.17;;;;;;;;;;5068544;28;20681;-66
2022/03/08 00:51:25;;;;;;;10.83;8.67;;;;;;;;;;5068300;28;20177;-66
2022/03/08 00:53:50;;;;;;;13.70;8.73;;;;;;;;;;5057675;28;20181;-65
2022/03/08 00:56:15;;;;;;;14.40;8.17;;;;;;;;;;5047493;28;20610;-64
2022/03/08 00:58:41;;;;;;;14.20;8.10;;;;;;;;;;5053118;28;20280;-66
2022/03/08 01:01:06;;;;;;;10.03;7.77;;;;;;;;;;5050663;28;20177;-65
2022/03/08 01:03:32;;;;;;;12.80;8.40;;;;;;;;;;5039196;28;20180;-65
2022/03/08 01:05:57;;;;;;;15.57;9.63;;;;;;;;;;5070489;28;20189;-67
2022/03/08 01:08:22;;;;;;;12.03;8.50;;;;;;;;;;5068848;28;20199;-66
2022/03/08 01:10:47;;;;;;;11.13;8.60;;;;;;;;;;5069033;28;20184;-67
2022/03/08 01:13:12;;;;;;;10.97;7.80;;;;;;;;;;5066191;28;20169;-66
2022/03/08 01:15:37;;;;;;;10.73;8.13;;;;;;;;;;5068358;28;20181;-66
2022/03/08 01:18:03;;;;;;;14.43;8.60;;;;;;;;;;5066040;28;20326;-65
2022/03/08 01:20:28;;;;;;;14.60;8.57;;;;;;;;;;5070252;28;20168;-67
2022/03/08 01:22:54;;;;;;;11.77;8.97;;;;;;;;;;5069280;28;20248;-67
2022/03/08 01:25:20;;;;;;;12.23;8.27;;;;;;;;;;5067963;28;20187;-67
2022/03/08 01:27:45;;;;;;;12.27;7.97;;;;;;;;;;5069849;28;20197;-66
2022/03/08 01:30:12;;;;;;;10.73;7.73;;;;;;;;;;5068994;28;20337;-67
2022/03/08 01:32:37;;;;;;;13.33;8.13;;;;;;;;;;5069458;28;20177;-67
2022/03/08 01:35:03;;;;;;;13.97;8.93;;;;;;;;;;5068745;28;20529;-67
2022/03/08 01:37:28;;;;;;;8.50;7.20;;;;;;;;;;5067405;28;20264;-66
2022/03/08 01:39:53;;;;;;;12.93;8.90;;;;;;;;;;5069820;28;20189;-67
2022/03/08 01:42:21;;;;;;;10.43;7.70;;;;;;;;;;5069919;28;20621;-65
2022/03/08 01:44:46;;;;;;;10.57;8.43;;;;;;;;;;5070176;28;20179;-67
2022/03/08 01:47:16;;;;;;;12.00;7.77;;;;;;;;;;5066496;28;20479;-66
2022/03/08 01:49:41;;;;;;;10.33;7.87;;;;;;;;;;5067037;28;20200;-66
2022/03/08 01:52:07;;;;;;;9.33;7.20;;;;;;;;;;5069179;28;20220;-66
2022/03/08 01:54:32;;;;;;;10.47;7.93;;;;;;;;;;5067322;28;20173;-66
2022/03/08 01:56:57;;;;;;;11.50;7.57;;;;;;;;;;5067914;28;20804;-67
2022/03/08 01:59:22;;;;;;;10.70;7.17;;;;;;;;;;5062719;28;20586;-67
2022/03/08 02:01:48;;;;;;;12.30;8.60;;;;;;;;;;5066431;28;20181;-66
2022/03/08 02:04:13;;;;;;;10.70;7.40;;;;;;;;;;5069089;28;20215;-67
2022/03/08 02:06:39;;;;;;;12.33;8.10;;;;;;;;;;5068701;28;21235;-67
2022/03/08 02:09:04;;;;;;;14.40;8.80;;;;;;;;;;5065392;28;20204;-67
2022/03/08 02:11:29;;;;;;;10.30;8.23;;;;;;;;;;5069167;28;20256;-66
2022/03/08 02:13:55;;;;;;;13.23;8.77;;;;;;;;;;5049193;28;20177;-66
2022/03/08 02:16:21;;;;;;;11.87;7.97;;;;;;;;;;5069238;28;20183;-67
2022/03/08 02:18:46;;;;;;;11.00;8.27;;;;;;;;;;5067077;28;20700;-67
2022/03/08 02:21:11;;;;;;;11.07;7.63;;;;;;;;;;5068226;28;20188;-67
2022/03/08 02:23:36;;;;;;;12.77;8.20;;;;;;;;;;5067018;28;20529;-67
2022/03/08 02:26:02;;;;;;;12.60;8.03;;;;;;;;;;5067264;28;20196;-66
2022/03/08 02:28:28;;;;;;;9.80;7.03;;;;;;;;;;5069108;28;20595;-66
2022/03/08 02:30:53;;;;;;;10.20;7.53;;;;;;;;;;5068813;28;20252;-66
2022/03/08 02:33:19;;;;;;;9.63;7.50;;;;;;;;;;5049339;28;20180;-67
2022/03/08 02:35:44;;;;;;;11.90;8.37;;;;;;;;;;5067225;28;20177;-66
2022/03/08 02:38:09;;;;;;;9.33;7.40;;;;;;;;;;5079292;22;20327;-68
2022/03/08 02:40:36;;;;;;;11.27;7.60;;;;;;;;;;5066196;28;20242;-68
2022/03/08 02:43:01;;;;;;;10.93;7.77;;;;;;;;;;5068292;28;20184;-69
2022/03/08 02:45:27;;;;;;;10.63;7.77;;;;;;;;;;5068347;28;20180;-68
2022/03/08 02:47:52;;;;;;;9.97;7.20;;;;;;;;;;5067749;28;20213;-69
2022/03/08 02:50:18;;;;;;;12.03;8.33;;;;;;;;;;5069049;28;20227;-68
2022/03/08 02:52:44;;;;;;;12.23;8.47;;;;;;;;;;5066504;28;20661;-68
2022/03/08 02:55:11;;;;;;;12.93;7.60;;;;;;;;;;5062976;28;20181;-68
2022/03/08 02:57:36;;;;;;;9.87;7.33;;;;;;;;;;5066126;28;20203;-69
2022/03/08 03:00:04;;;;;;;12.93;8.10;;;;;;;;;;5061825;28;20713;-68
2022/03/08 03:02:29;;;;;;;10.27;7.93;;;;;;;;;;5069847;28;20177;-69
2022/03/08 03:04:54;;;;;;;14.87;7.90;;;;;;;;;;5069128;28;20638;-69
2022/03/08 03:07:21;;;;;;;11.40;8.03;;;;;;;;;;5067998;28;20211;-68
2022/03/08 03:09:47;;;;;;;11.23;7.63;;;;;;;;;;5063653;28;20284;-68
2022/03/08 03:12:12;;;;;;;12.80;7.53;;;;;;;;;;5066729;28;20303;-68
2022/03/08 03:14:37;;;;;;;16.07;8.17;;;;;;;;;;5065464;28;20546;-72
2022/03/08 03:17:03;;;;;;;9.27;6.97;;;;;;;;;;5070832;28;20193;-68
2022/03/08 03:19:28;;;;;;;10.00;6.83;;;;;;;;;;5070400;28;20191;-68
2022/03/08 03:21:53;;;;;;;10.87;7.73;;;;;;;;;;5050463;28;20184;-68
2022/03/08 03:24:18;;;;;;;9.63;7.07;;;;;;;;;;5068996;28;20532;-67
2022/03/08 03:26:43;;;;;;;10.63;6.97;;;;;;;;;;5071413;28;20203;-68
2022/03/08 03:29:09;;;;;;;11.07;7.23;;;;;;;;;;5072237;28;20677;-68
2022/03/08 03:31:34;;;;;;;11.47;7.83;;;;;;;;;;5070077;28;20184;-68
2022/03/08 03:33:59;;;;;;;10.17;7.73;;;;;;;;;;5072203;28;20214;-68
2022/03/08 03:36:24;;;;;;;9.07;6.57;;;;;;;;;;5072362;28;20596;-68
2022/03/08 03:38:49;;;;;;;10.33;7.47;;;;;;;;;;5070770;28;20713;-68
2022/03/08 03:41:15;;;;;;;8.93;6.77;;;;;;;;;;5069978;28;20173;-68
2022/03/08 03:43:40;;;;;;;13.00;7.43;;;;;;;;;;5054772;28;20176;-68
2022/03/08 03:46:06;;;;;;;9.57;6.90;;;;;;;;;;5071083;28;20208;-68
2022/03/08 03:48:31;;;;;;;9.47;6.27;;;;;;;;;;5072262;28;20203;-68
2022/03/08 03:50:56;;;;;;;8.40;6.60;;;;;;;;;;5072157;28;20215;-68
2022/03/08 03:53:21;;;;;;;8.27;6.17;;;;;;;;;;5068744;28;20177;-68
2022/03/08 03:55:47;;;;;;;10.47;6.30;;;;;;;;;;5066441;28;20196;-68
2022/03/08 03:58:12;;;;;;;10.43;7.20;;;;;;;;;;5070638;28;20201;-67
2022/03/08 04:00:37;;;;;;;9.23;6.87;;;;;;;;;;5067676;28;20185;-68
2022/03/08 04:03:02;;;;;;;10.20;6.77;;;;;;;;;;5070979;28;20173;-68
2022/03/08 04:05:29;;;;;;;10.87;8.10;;;;;;;;;;5070042;28;20242;-68
2022/03/08 04:07:54;;;;;;;14.80;8.03;;;;;;;;;;5070833;28;20283;-68
2022/03/08 04:10:19;;;;;;;13.70;8.17;;;;;;;;;;5071750;28;20189;-68
2022/03/08 04:12:44;;;;;;;10.57;7.97;;;;;;;;;;5069470;28;20263;-68
2022/03/08 04:15:10;;;;;;;9.50;6.30;;;;;;;;;;5070454;28;20192;-68
2022/03/08 04:17:35;;;;;;;9.50;6.87;;;;;;;;;;5069308;28;20209;-68
2022/03/08 04:20:01;;;;;;;10.70;6.97;;;;;;;;;;5071698;28;20596;-68
2022/03/08 04:22:26;;;;;;;10.30;6.90;;;;;;;;;;5070554;28;20554;-67
2022/03/08 04:24:51;;;;;;;14.03;7.13;;;;;;;;;;5053886;28;20173;-68
2022/03/08 04:27:17;;;;;;;11.40;6.87;;;;;;;;;;5070844;28;20208;-69
2022/03/08 04:29:42;;;;;;;9.33;7.07;;;;;;;;;;5071638;28;20195;-69
2022/03/08 04:32:07;;;;;;;10.70;7.10;;;;;;;;;;5069593;28;20177;-68
2022/03/08 04:34:32;;;;;;;10.17;6.93;;;;;;;;;;5071555;28;20256;-68
2022/03/08 04:36:57;;;;;;;11.87;6.53;;;;;;;;;;5068454;28;20676;-68
2022/03/08 04:39:23;;;;;;;9.80;6.93;;;;;;;;;;5071225;28;20205;-68
2022/03/08 04:41:48;;;;;;;9.20;6.83;;;;;;;;;;5071102;28;20541;-68
2022/03/08 04:44:13;;;;;;;13.10;8.07;;;;;;;;;;5071373;28;20204;-68
2022/03/08 04:46:39;;;;;;;10.00;7.33;;;;;;;;;;5070189;28;20200;-68
2022/03/08 04:49:04;;;;;;;9.00;6.73;;;;;;;;;;5070172;28;20199;-68
2022/03/08 04:51:29;;;;;;;12.43;7.40;;;;;;;;;;5053610;28;20176;-68
2022/03/08 04:53:55;;;;;;;11.13;7.60;;;;;;;;;;5068026;28;20235;-68
2022/03/08 04:56:20;;;;;;;13.43;7.83;;;;;;;;;;5070893;28;20192;-68
2022/03/08 04:58:45;;;;;;;10.73;6.73;;;;;;;;;;5071534;28;20204;-68
2022/03/08 05:01:11;;;;;;;11.57;6.97;;;;;;;;;;5066889;28;20654;-67
2022/03/08 05:03:36;;;;;;;11.57;7.80;;;;;;;;;;5066933;28;20173;-68
2022/03/08 05:06:02;;;;;;;10.53;6.73;;;;;;;;;;5062006;28;20204;-68
2022/03/08 05:08:27;;;;;;;11.70;6.97;;;;;;;;;;5065453;28;20209;-68
2022/03/08 05:10:53;;;;;;;11.30;8.57;;;;;;;;;;5065577;28;20181;-67
2022/03/08 05:13:18;;;;;;;8.53;6.37;;;;;;;;;;5069109;28;20165;-68
2022/03/08 05:15:47;;;;;;;8.60;7.07;;;;;;;;;;5070830;28;20223;-68
2022/03/08 05:18:12;;;;;;;9.63;7.57;;;;;;;;;;5070100;28;20208;-67
2022/03/08 05:20:37;;;;;;;12.57;7.53;;;;;;;;;;5057958;28;20197;-68
2022/03/08 05:23:02;;;;;;;10.17;7.00;;;;;;;;;;5068315;28;20238;-68
2022/03/08 05:25:28;;;;;;;9.33;6.87;;;;;;;;;;5070195;28;20288;-68
2022/03/08 05:27:53;;;;;;;10.07;6.60;;;;;;;;;;5051546;28;20216;-68
2022/03/08 05:30:18;;;;;;;9.23;6.67;;;;;;;;;;5070174;28;20685;-67
2022/03/08 05:32:44;;;;;;;8.53;6.50;;;;;;;;;;5068863;28;20187;-68
2022/03/08 05:35:09;;;;;;;8.87;6.77;;;;;;;;;;5070060;28;20260;-68
2022/03/08 05:37:36;;;;;;;12.13;6.50;;;;;;;;;;5069834;28;20176;-67
2022/03/08 05:40:01;;;;;;;10.40;6.63;;;;;;;;;;5070722;28;20215;-68
2022/03/08 05:42:28;;;;;;;10.30;6.57;;;;;;;;;;5068530;28;20270;-67
2022/03/08 05:44:53;;;;;;;8.77;6.40;;;;;;;;;;5068922;28;20252;-68
2022/03/08 05:47:18;;;;;;;8.50;6.60;;;;;;;;;;5067300;28;20204;-67
2022/03/08 05:49:43;;;;;;;11.37;6.60;;;;;;;;;;5065715;28;20205;-68
2022/03/08 05:52:08;;;;;;;10.13;6.87;;;;;;;;;;5075014;28;20181;-68
2022/03/08 05:54:34;;;;;;;8.33;6.30;;;;;;;;;;5066768;28;20264;-69
2022/03/08 05:56:59;;;;;;;13.67;7.03;;;;;;;;;;5070433;28;20185;-67
2022/03/08 05:59:24;;;;;;;9.90;6.50;;;;;;;;;;5067778;28;20199;-68
2022/03/08 06:01:49;;;;;;;9.37;6.17;;;;;;;;;;5038614;28;20185;-68
2022/03/08 06:04:14;;;;;;;8.03;5.97;;;;;;;;;;5061544;28;20185;-68
2022/03/08 06:06:39;;;;;;;7.93;5.57;;;;;;;;;;5069545;28;20649;-67
2022/03/08 06:09:05;;;;;;;8.90;7.00;;;;;;;;;;5045733;28;20224;-68
2022/03/08 06:11:30;;;;;;;11.93;7.10;;;;;;;;;;5070280;28;20173;-68
2022/03/08 06:13:55;;;;;;;7.23;5.77;;;;;;;;;;5066898;28;20184;-68
2022/03/08 06:16:20;;;;;;;8.43;6.30;;;;;;;;;;5070010;28;20199;-68
2022/03/08 06:18:45;;;;;;;11.53;7.10;;;;;;;;;;5061821;28;20543;-68
2022/03/08 06:21:10;;;;;;;7.83;6.10;;;;;;;;;;5059592;28;20264;-67
2022/03/08 06:23:36;;;;;;;11.23;6.63;;;;;;;;;;5067936;28;20549;-68
2022/03/08 06:26:01;;;;;;;8.87;5.87;;;;;;;;;;5064980;28;20212;-68
2022/03/08 06:28:26;;;;;;;8.67;7.17;;;;;;;;;;5068972;28;20197;-67
2022/03/08 06:30:51;;;;;;;9.93;6.57;;;;;;;;;;5069403;28;20734;-68
2022/03/08 06:33:17;;;;;;;8.43;6.60;;;;;;;;;;5069597;28;20193;-67
2022/03/08 06:35:42;;;;;;;8.90;6.00;;;;;;;;;;5068462;28;20550;-68
2022/03/08 06:38:07;;;;;;;9.50;6.40;;;;;;;;;;5060418;28;20208;-68
2022/03/08 06:40:32;;;;;;;11.23;6.60;;;;;;;;;;5065459;28;20174;-68
2022/03/08 06:42:58;;;;;;;7.93;6.10;;;;;;;;;;5051922;28;20242;-68
2022/03/08 06:45:23;;;;;;;9.03;5.90;;;;;;;;;;5066346;28;20199;-68
2022/03/08 06:47:48;;;;;;;10.57;6.77;;;;;;;;;;5059356;28;20262;-68
2022/03/08 06:50:13;;;;;;;9.20;6.37;;;;;;;;;;5069822;28;20173;-68
2022/03/08 06:52:39;;;;;;;8.60;5.90;;;;;;;;;;5068926;28;20173;-68
2022/03/08 06:55:04;;;;;;;9.17;6.30;;;;;;;;;;5060759;28;20173;-68
2022/03/08 06:57:30;;;;;;;7.67;5.93;;;;;;;;;;5069326;28;20268;-68
2022/03/08 06:59:55;;;;;;;9.90;7.23;;;;;;;;;;5068375;28;20208;-68
2022/03/08 07:02:20;;;;;;;8.73;6.53;;;;;;;;;;5067711;28;20189;-68
2022/03/08 07:04:45;;;;;;;8.87;6.23;;;;;;;;;;5069635;28;20281;-67
2022/03/08 07:07:11;;;;;;;12.90;6.23;;;;;;;;;;5071146;28;20265;-68
2022/03/08 07:09:36;;;;;;;9.93;6.13;;;;;;;;;;5074531;28;20184;-68
2022/03/08 07:12:01;;;;;;;8.30;6.63;;;;;;;;;;5074303;28;20173;-68
2022/03/08 07:14:26;;;;;;;12.67;6.80;;;;;;;;;;5067184;28;20177;-68
2022/03/08 07:16:51;;;;;;;9.90;6.20;;;;;;;;;;5074215;28;20181;-68
2022/03/08 07:19:17;;;;;;;9.50;7.03;;;;;;;;;;5068128;28;20209;-67
2022/03/08 07:21:42;;;;;;;9.03;6.90;;;;;;;;;;5069136;28;20188;-67
2022/03/08 07:24:08;;;;;;;10.13;5.77;;;;;;;;;;5072876;28;20407;-68
2022/03/08 07:26:34;;;;;;;9.17;6.10;;;;;;;;;;5073579;28;20243;-68
2022/03/08 07:28:59;;;;;;;8.37;5.73;;;;;;;;;;5073647;28;20627;-68
2022/03/08 07:31:24;;;;;;;8.47;5.70;;;;;;;;;;5073758;28;20626;-68
2022/03/08 07:33:51;;;;;;;7.10;5.53;;;;;;;;;;5064809;28;20191;-68
2022/03/08 07:36:16;;;;;;;9.33;6.20;;;;;;;;;;5071124;28;20246;-68
2022/03/08 07:38:41;;;;;;;7.63;6.00;;;;;;;;;;5066421;28;20209;-68
2022/03/08 07:41:06;;;;;;;10.10;6.63;;;;;;;;;;5069914;28;20287;-67
2022/03/08 07:43:32;;;;;;;7.67;5.83;;;;;;;;;;5073082;28;20184;-67
2022/03/08 07:45:57;;;;;;;8.60;6.63;;;;;;;;;;5072750;28;20173;-68
2022/03/08 07:48:22;;;;;;;7.23;6.10;;;;;;;;;;5073455;28;20216;-68
2022/03/08 07:50:48;;;;;;;6.87;6.03;;;;;;;;;;5052661;28;20271;-68
2022/03/08 07:53:13;;;;;;;7.63;5.83;;;;;;;;;;5070973;28;20195;-68
2022/03/08 07:55:38;;;;;;;8.73;5.33;;;;;;;;;;5069623;28;20257;-68
2022/03/08 07:58:04;;;;;;;8.87;6.13;;;;;;;;;;5070288;28;20197;-67
2022/03/08 08:00:29;;;;;;;8.60;6.40;;;;;;;;;;5068511;28;20660;-68
2022/03/08 08:02:55;;;;;;;7.47;6.10;;;;;;;;;;5072091;28;20631;-68
2022/03/08 08:05:20;;;;;;;8.97;6.40;;;;;;;;;;5070873;28;20184;-67
2022/03/08 08:07:46;;;;;;;6.70;5.53;;;;;;;;;;5041446;28;20207;-68
2022/03/08 08:10:11;;;;;;;9.27;6.87;;;;;;;;;;5064755;28;20177;-67
2022/03/08 08:12:37;;;;;;;8.13;6.67;;;;;;;;;;5063122;28;20177;-68
2022/03/08 08:15:03;;;;;;;8.33;6.03;;;;;;;;;;5068705;28;20180;-68
2022/03/08 08:17:28;;;;;;;8.27;5.87;;;;;;;;;;5070067;28;20585;-68
2022/03/08 08:19:53;;;;;;;10.00;6.53;;;;;;;;;;5071341;28;20197;-68
2022/03/08 08:22:19;;;;;;;7.10;5.83;;;;;;;;;;5071765;28;20177;-68
2022/03/08 08:24:44;;;;;;;7.87;6.40;;;;;;;;;;5067648;28;20178;-69
2022/03/08 08:27:09;;;;;;;6.30;5.30;;;;;;;;;;5065495;28;20708;-68
2022/03/08 08:29:34;;;;;;;7.47;6.00;;;;;;;;;;5063754;28;20205;-68
2022/03/08 08:31:59;;;;;;;6.90;5.73;;;;;;;;;;5067272;28;20181;-67
2022/03/08 08:34:24;;;;;;;6.90;5.67;;;;;;;;;;5064343;28;20205;-68
2022/03/08 08:36:50;;;;;;;6.70;5.87;;;;;;;;;;5068874;28;20265;-68
2022/03/08 08:39:15;;;;;;;8.07;6.20;;;;;;;;;;5072369;22;20229;-66
2022/03/08 08:41:44;;;;;;;9.27;6.23;;;;;;;;;;5050182;28;20224;-66
2022/03/08 08:44:09;;;;;;;6.17;5.57;;;;;;;;;;5049448;28;20178;-66
2022/03/08 08:46:34;;;;;;;8.80;6.10;;;;;;;;;;5048615;28;20227;-65
2022/03/08 08:49:00;;;;;;;7.60;5.30;;;;;;;;;;5050312;28;20193;-67
2022/03/08 08:51:25;;;;;;;7.40;5.87;;;;;;;;;;5050683;28;20174;-66
2022/03/08 08:53:50;;;;;;;7.03;5.30;;;;;;;;;;5047020;28;20181;-68
2022/03/08 08:56:15;;;;;;;8.00;5.83;;;;;;;;;;5045587;28;20208;-66
2022/03/08 08:58:41;;;;;;;8.87;6.07;;;;;;;;;;5051623;28;20206;-64
2022/03/08 09:01:06;;;;;;;7.37;5.40;;;;;;;;;;5045145;28;20197;-66
2022/03/08 09:03:31;;;;;;;6.20;5.30;;;;;;;;;;5050180;28;20178;-65
2022/03/08 09:05:58;;;;;;;5.77;4.97;;;;;;;;;;5049867;28;20185;-67
2022/03/08 09:08:26;;;;;;;7.43;5.90;;;;;;;;;;5050586;28;20347;-66
2022/03/08 09:10:52;;;;;;;7.77;5.43;;;;;;;;;;5048496;28;20184;-66
2022/03/08 09:13:17;;;;;;;5.87;5.20;;;;;;;;;;5049970;28;20188;-65
2022/03/08 09:15:42;;;;;;;7.97;5.83;;;;;;;;;;5048768;28;20178;-66
2022/03/08 09:18:08;;;;;;;7.77;6.60;;;;;;;;;;5051253;28;20211;-66
2022/03/08 09:20:33;;;;;;;7.10;5.23;;;;;;;;;;5048786;28;20718;-65
2022/03/08 09:22:58;;;;;;;7.30;5.70;;;;;;;;;;5048825;28;20181;-65
2022/03/08 09:25:24;;;;;;;8.00;5.43;;;;;;;;;;5049132;28;20173;-66
2022/03/08 09:27:49;;;;;;;8.20;5.80;;;;;;;;;;5044207;28;20201;-65
2022/03/08 09:30:15;;;;;;;7.10;6.13;;;;;;;;;;5045654;28;20249;-66
2022/03/08 09:32:41;;;;;;;7.67;5.53;;;;;;;;;;5040627;28;20173;-67
2022/03/08 09:35:06;;;;;;;7.57;5.70;;;;;;;;;;5042489;28;20260;-65
2022/03/08 09:37:31;;;;;;;8.03;5.60;;;;;;;;;;5045729;28;20193;-66
2022/03/08 09:39:56;;;;;;;7.33;5.57;;;;;;;;;;5049968;28;20255;-67
2022/03/08 09:42:22;;;;;;;6.23;5.20;;;;;;;;;;5052482;28;20543;-66
2022/03/08 09:44:48;;;;;;;6.20;5.20;;;;;;;;;;5058001;28;20260;-65
2022/03/08 09:47:14;;;;;;;5.67;4.63;;;;;;;;;;5045574;28;20701;-66
2022/03/08 09:49:39;;;;;;;6.57;5.63;;;;;;;;;;5049911;28;20198;-65
2022/03/08 09:52:04;;;;;;;5.83;5.30;;;;;;;;;;5046523;28;20556;-66
2022/03/08 09:54:29;;;;;;;6.40;4.97;;;;;;;;;;5050106;28;20237;-66
2022/03/08 09:56:55;;;;;;;5.80;4.80;;;;;;;;;;5044046;28;20181;-65
2022/03/08 09:59:20;;;;;;;9.80;5.77;;;;;;;;;;5046140;28;20255;-67
2022/03/08 10:01:46;;;;;;;5.43;4.87;;;;;;;;;;5047724;28;20185;-65
2022/03/08 10:04:17;;;;;;;6.27;5.67;;;;;;;;;;5048478;28;20438;-66
2022/03/08 10:06:43;;;;;;;5.67;5.13;;;;;;;;;;5047899;28;20202;-66
2022/03/08 10:09:09;;;;;;;8.27;5.43;;;;;;;;;;5045075;28;20650;-65
2022/03/08 10:11:36;;;;;;;7.70;4.50;;;;;;;;;;5044953;28;20272;-66
2022/03/08 10:14:02;;;;;;;5.10;4.60;;;;;;;;;;5047409;28;20226;-66
2022/03/08 10:16:41;;;;;;;5.70;5.10;;;;;;;;;;5035007;28;20262;-66
2022/03/08 10:19:08;;;;;;;5.93;5.37;;;;;;;;;;5030877;28;20201;-66
2022/03/08 10:21:35;;;;;;;9.60;5.63;;;;;;;;;;5048195;28;20177;-66
2022/03/08 10:24:15;;;;;;;7.97;5.30;;;;;;;;;;5049636;28;20649;-67
2022/03/08 10:26:43;;;;;;;5.43;4.80;;;;;;;;;;5045798;28;20197;-66
2022/03/08 10:29:09;;;;;;;8.00;5.23;;;;;;;;;;5048377;28;20185;-66
2022/03/08 10:31:34;;;;;;;7.33;5.30;;;;;;;;;;5043377;28;20187;-66
2022/03/08 10:34:04;;;;;;;7.77;5.40;;;;;;;;;;5049428;28;20545;-66
2022/03/08 10:36:31;;;;;;;5.83;5.03;;;;;;;;;;5052928;28;20197;-67
2022/03/08 10:39:08;;;;;;;6.87;4.63;;;;;;;;;;5049474;28;20220;-66
2022/03/08 10:41:37;;;;;;;6.53;5.10;;;;;;;;;;5055522;28;20177;-67
2022/03/08 10:44:03;;;;;;;6.73;5.30;;;;;;;;;;5053254;28;20189;-65
2022/03/08 10:46:28;;;;;;;7.73;5.13;;;;;;;;;;5054755;28;20286;-66
2022/03/08 10:48:54;;;;;;;9.53;4.77;;;;;;;;;;5062730;28;20198;-66
2022/03/08 10:51:19;;;;;;;7.70;4.73;;;;;;;;;;5059101;28;20512;-66
2022/03/08 10:53:45;;;;;;;6.63;5.20;;;;;;;;;;5034969;28;20231;-65
2022/03/08 10:56:10;;;;;;;6.50;4.47;;;;;;;;;;5053708;28;20182;-66
2022/03/08 10:58:56;;;;;;;7.30;4.90;;;;;;;;;;5055096;28;20746;-66
2022/03/08 11:01:21;;;;;;;4.63;4.23;;;;;;;;;;5052044;28;20329;-66
2022/03/08 11:03:56;;;;;;;6.57;4.60;;;;;;;;;;5052644;28;20662;-66
2022/03/08 11:06:21;;;;;;;8.43;5.17;;;;;;;;;;5037643;28;20685;-66
2022/03/08 11:08:47;;;;;;;8.10;5.40;;;;;;;;;;5053775;28;20280;-66
2022/03/08 11:11:12;;;;;;;5.47;4.70;;;;;;;;;;5052675;28;20173;-66
2022/03/08 11:13:37;;;;;;;5.40;4.83;;;;;;;;;;5053954;28;20181;-66
2022/03/08 11:16:03;;;;;;;6.10;4.70;;;;;;;;;;5052305;28;20181;-66
2022/03/08 11:18:29;;;;;;;6.40;5.30;;;;;;;;;;5055575;28;20270;-65
2022/03/08 11:20:58;;;;;;;6.20;5.33;;;;;;;;;;5052811;28;20177;-65
2022/03/08 11:23:23;;;;;;;6.10;4.83;;;;;;;;;;5037753;28;20168;-65
2022/03/08 11:25:48;;;;;;;7.07;5.50;;;;;;;;;;5054356;28;20181;-66
2022/03/08 11:28:14;;;;;;;8.27;5.37;;;;;;;;;;5050707;28;20213;-66
2022/03/08 11:30:44;;;;;;;5.13;4.47;;;;;;;;;;5055373;28;20166;-66
2022/03/08 11:33:28;;;;;;;8.67;4.80;;;;;;;;;;5053007;28;20230;-66
2022/03/08 11:35:57;;;;;;;7.03;4.60;;;;;;;;;;5053714;28;20169;-66
2022/03/08 11:38:22;;;;;;;6.70;5.07;;;;;;;;;;5053774;28;20251;-64
2022/03/08 11:40:53;;;;;;;6.87;5.27;;;;;;;;;;5053494;28;21676;-68
2022/03/08 11:43:18;;;;;;;8.03;5.10;;;;;;;;;;5035735;28;20177;-68
2022/03/08 11:45:44;;;;;;;5.80;4.50;;;;;;;;;;5051427;28;20173;-66
2022/03/08 11:48:09;;;;;;;6.47;5.23;;;;;;;;;;5049760;28;20288;-66
2022/03/08 11:50:39;;;;;;;7.30;5.27;;;;;;;;;;5035801;28;20196;-67
2022/03/08 11:53:07;;;;;;;6.77;5.33;;;;;;;;;;5035382;28;20555;-66
2022/03/08 11:55:34;;;;;;;10.70;4.47;;;;;;;;;;5045374;28;20170;-66
2022/03/08 11:58:03;;;;;;;8.73;5.00;;;;;;;;;;5035781;28;20527;-65
2022/03/08 12:00:32;;;;;;;6.73;4.80;;;;;;;;;;5049015;28;20170;-65
2022/03/08 12:02:58;;;;;;;5.20;4.70;;;;;;;;;;5052710;28;20177;-68
2022/03/08 12:05:39;;;;;;;7.53;6.03;;;;;;;;;;5055378;28;20197;-66
2022/03/08 12:08:26;;;;;;;6.40;4.97;;;;;;;;;;5052149;28;20254;-66
2022/03/08 12:11:03;;;;;;;10.87;5.63;;;;;;;;;;5050702;28;20223;-65
2022/03/08 12:13:33;;;;;;;6.83;4.40;;;;;;;;;;5037368;28;20641;-65
2022/03/08 12:16:10;;;;;;;7.37;5.80;;;;;;;;;;5051374;28;20257;-65
2022/03/08 12:18:48;;;;;;;7.20;5.60;;;;;;;;;;5050813;28;20193;-66
2022/03/08 12:21:25;;;;;;;13.75;6.45;;;;;;;;;;5049773;28;20176;-65
2022/03/08 12:23:50;;;;;;;6.63;5.10;;;;;;;;;;5051422;28;20567;-65
2022/03/08 12:26:36;;;;;;;8.37;5.70;;;;;;;;;;5048806;28;20182;-66
2022/03/08 12:29:21;;;;;;;11.37;5.10;;;;;;;;;;5049818;28;20185;-66
2022/03/08 12:31:56;;;;;;;8.93;5.10;;;;;;;;;;5048375;28;20238;-66
2022/03/08 12:34:47;;;;;;;7.50;4.63;;;;;;;;;;5046287;28;20169;-66
2022/03/08 12:37:18;;;;;;;6.00;4.27;;;;;;;;;;5043501;28;20255;-65
2022/03/08 12:39:58;;;;;;;5.53;4.87;;;;;;;;;;5049718;28;20244;-65
2022/03/08 12:42:31;;;;;;;5.43;4.73;;;;;;;;;;5045607;28;20253;-65
2022/03/08 12:44:56;;;;;;;7.07;4.53;;;;;;;;;;5049852;28;20658;-66
2022/03/08 12:47:22;;;;;;;5.73;4.63;;;;;;;;;;5048241;28;20313;-65
2022/03/08 12:49:48;;;;;;;6.47;5.20;;;;;;;;;;5050213;28;20446;-65
2022/03/08 12:52:14;;;;;;;8.20;4.53;;;;;;;;;;5049742;28;20192;-65
2022/03/08 12:54:41;;;;;;;6.50;5.00;;;;;;;;;;5046827;28;20260;-69
2022/03/08 12:57:09;;;;;;;7.82;4.70;;;;;;;;;;5049244;28;20208;-65
2022/03/08 12:59:40;;;;;;;8.63;5.88;;;;;;;;;;5050304;28;20220;-66
2022/03/08 13:02:06;;;;;;;7.40;5.00;;;;;;;;;;5050369;28;20189;-67
2022/03/08 13:04:31;;;;;;;6.60;4.67;;;;;;;;;;5044848;28;20181;-66
2022/03/08 13:07:10;;;;;;;6.17;4.77;;;;;;;;;;5043044;28;20194;-67
2022/03/08 13:09:48;;;;;;;13.00;5.00;;;;;;;;;;5045527;28;20292;-65
2022/03/08 13:12:21;;;;;;;7.50;4.50;;;;;;;;;;5048441;28;20553;-66
2022/03/08 13:15:05;;;;;;;7.13;4.50;;;;;;;;;;5046330;28;20177;-66
2022/03/08 13:17:30;;;;;;;7.32;5.07;;;;;;;;;;5048807;28;20618;-66
2022/03/08 13:19:56;;;;;;;11.40;5.10;;;;;;;;;;5049578;28;20278;-66
2022/03/08 13:22:21;;;;;;;11.63;4.80;;;;;;;;;;5044775;28;20212;-67
2022/03/08 13:25:05;;;;;;;9.48;4.97;;;;;;;;;;5050316;28;20213;-66
2022/03/08 13:27:47;;;;;;;5.95;4.70;;;;;;;;;;5048561;28;20300;-66
2022/03/08 13:30:23;;;;;;;8.00;4.22;;;;;;;;;;5042864;28;20193;-66
2022/03/08 13:32:48;;;;;;;7.13;4.53;;;;;;;;;;5048043;28;20205;-66
2022/03/08 13:35:15;;;;;;;6.10;4.40;;;;;;;;;;5052222;28;20292;-66
2022/03/08 13:37:47;;;;;;;6.97;5.00;;;;;;;;;;5052381;28;20190;-66
2022/03/08 13:40:26;;;;;;;11.05;4.22;;;;;;;;;;5046361;28;20590;-66
2022/03/08 13:42:51;;;;;;;8.60;4.45;;;;;;;;;;5041455;28;20569;-66
2022/03/08 13:45:16;;;;;;;8.93;4.43;;;;;;;;;;5039941;28;20226;-66
2022/03/08 13:47:41;;;;;;;8.82;4.38;;;;;;;;;;5042552;28;20198;-66
2022/03/08 13:50:07;;;;;;;11.40;4.27;;;;;;;;;;5045706;28;20209;-66
2022/03/08 13:52:33;;;;;;;13.45;4.57;;;;;;;;;;5023639;28;20182;-66
2022/03/08 13:54:58;;;;;;;8.57;4.13;;;;;;;;;;5049047;28;20184;-66
2022/03/08 13:57:24;;;;;;;6.80;4.20;;;;;;;;;;5045190;28;20181;-66
2022/03/08 13:59:49;;;;;;;9.83;4.03;;;;;;;;;;5046639;28;20198;-65
2022/03/08 14:02:17;;;;;;;9.37;4.63;;;;;;;;;;5045555;28;20223;-66
2022/03/08 14:04:42;;;;;;;7.13;4.43;;;;;;;;;;5049740;28;20199;-66
2022/03/08 14:07:07;;;;;;;12.55;5.22;;;;;;;;;;5023817;28;20251;-66
2022/03/08 14:09:33;;;;;;;6.35;4.40;;;;;;;;;;5046250;28;20196;-65
2022/03/08 14:11:58;;;;;;;9.73;4.30;;;;;;;;;;5047307;28;20183;-66
2022/03/08 14:14:28;;;;;;;12.73;4.30;;;;;;;;;;5047666;28;20192;-66
2022/03/08 14:16:54;;;;;;;11.18;4.55;;;;;;;;;;5045116;28;20236;-66
2022/03/08 14:19:22;;;;;;;9.57;3.85;;;;;;;;;;5048525;28;20201;-66
2022/03/08 14:21:48;;;;;;;6.40;4.32;;;;;;;;;;5031297;28;20224;-65
2022/03/08 14:24:17;;;;;;;12.27;4.53;;;;;;;;;;5046391;28;20197;-66
2022/03/08 14:26:58;;;;;;;7.80;4.78;;;;;;;;;;5049347;28;20254;-66
2022/03/08 14:29:23;;;;;;;11.82;4.50;;;;;;;;;;5045899;28;20189;-66
2022/03/08 14:31:49;;;;;;;26.13;7.10;;;;;;;;;;5031752;28;20177;-66
2022/03/08 14:34:16;;;;;;;13.70;4.82;;;;;;;;;;5048323;28;20623;-66